Time;durP1;ratioP1;P1;durP2;ratioP2;P2;SDS_P1;SDS_P2;PMS_P1;PMS_P2;Temp;Humidity;BMP_temperature;BMP_pressure;BME280_temperature;BME280_humidity;BME280_pressure;Samples;Min_cycle;Max_cycle;Signal;HPM_P1;HPM_P2
2023/12/04 00:00:02;;;;;;;18.63;6.75;;;1.00;99.90;;;0.49;100.00;100966.84;5236054;28;20086;-46
2023/12/04 00:02:44;;;;;;;15.93;6.22;;;1.00;99.90;;;0.55;100.00;100969.88;5238217;28;20410;-47
2023/12/04 00:05:18;;;;;;;17.60;6.43;;;1.00;99.90;;;0.57;100.00;100965.75;5258206;28;20044;-47
2023/12/04 00:07:51;;;;;;;16.13;7.22;;;1.10;99.90;;;0.61;100.00;100965.22;5254007;28;20432;-47
2023/12/04 00:10:23;;;;;;;14.77;6.38;;;1.10;99.90;;;0.63;100.00;100957.63;5252661;28;20070;-47
2023/12/04 00:12:55;;;;;;;15.55;6.90;;;1.10;99.90;;;0.63;100.00;100950.84;5253380;28;20438;-47
2023/12/04 00:15:28;;;;;;;15.73;6.68;;;1.10;99.90;;;0.63;100.00;100953.41;5256716;28;20040;-47
2023/12/04 00:18:00;;;;;;;16.80;6.40;;;1.10;99.90;;;0.64;100.00;100944.91;5257244;28;20063;-46
2023/12/04 00:20:34;;;;;;;17.65;6.28;;;1.20;99.90;;;0.68;100.00;100941.81;5256295;28;20059;-48
2023/12/04 00:23:06;;;;;;;18.13;6.72;;;1.20;99.90;;;0.68;100.00;100933.22;5239996;28;20138;-47
2023/12/04 00:25:38;;;;;;;15.02;6.15;;;1.20;99.90;;;0.65;100.00;100936.47;5254634;28;20570;-47
2023/12/04 00:28:11;;;;;;;15.95;6.40;;;1.20;99.90;;;0.64;100.00;100934.66;5257481;28;20530;-47
2023/12/04 00:30:43;;;;;;;16.40;6.55;;;1.20;99.90;;;0.61;100.00;100937.00;5257124;28;20041;-47
2023/12/04 00:33:15;;;;;;;15.82;6.47;;;1.20;99.90;;;0.62;100.00;100927.63;5237509;28;20052;-46
2023/12/04 00:35:52;;;;;;;14.15;6.00;;;1.20;99.90;;;0.64;100.00;100929.53;5238957;28;20560;-47
2023/12/04 00:38:25;;;;;;;13.90;5.97;;;1.20;99.90;;;0.66;100.00;100919.41;5255490;28;20045;-47
2023/12/04 00:40:57;;;;;;;14.13;5.18;;;1.20;99.90;;;0.66;100.00;100924.53;5250950;28;20067;-48
2023/12/04 00:43:29;;;;;;;11.93;5.50;;;1.20;99.90;;;0.65;100.00;100912.47;5252140;28;20060;-48
2023/12/04 00:46:01;;;;;;;16.23;6.10;;;1.20;99.90;;;0.64;100.00;100908.09;5249884;28;20049;-47
2023/12/04 00:48:34;;;;;;;14.65;5.97;;;1.20;99.90;;;0.63;100.00;100920.03;5252182;28;20064;-48
2023/12/04 00:51:08;;;;;;;11.85;5.13;;;1.20;99.90;;;0.62;100.00;100918.25;5237208;28;20063;-46
2023/12/04 00:53:41;;;;;;;14.73;6.22;;;1.20;99.90;;;0.62;100.00;100910.56;5257238;28;20048;-47
2023/12/04 00:56:13;;;;;;;13.50;5.95;;;1.10;99.90;;;0.63;100.00;100914.03;5237327;28;20048;-48
2023/12/04 00:58:45;;;;;;;15.93;6.50;;;1.10;99.90;;;0.62;100.00;100909.69;5253660;28;20056;-46
2023/12/04 01:01:18;;;;;;;11.85;5.72;;;1.20;99.90;;;0.59;100.00;100902.66;5250213;28;20123;-47
2023/12/04 01:03:50;;;;;;;17.60;6.50;;;1.10;99.90;;;0.58;100.00;100903.41;5252942;28;20843;-46
2023/12/04 01:06:24;;;;;;;15.18;6.15;;;1.10;99.90;;;0.57;100.00;100890.47;5255364;28;20098;-47
2023/12/04 01:08:57;;;;;;;14.55;5.95;;;1.10;99.90;;;0.59;100.00;100888.91;5246550;28;20045;-47
2023/12/04 01:11:29;;;;;;;13.73;6.72;;;1.10;99.90;;;0.57;100.00;100886.22;5252498;28;20132;-47
2023/12/04 01:14:01;;;;;;;13.23;5.90;;;1.10;99.90;;;0.56;100.00;100887.00;5254335;28;20044;-48
2023/12/04 01:16:34;;;;;;;12.70;5.43;;;1.10;99.90;;;0.57;100.00;100880.22;5256110;28;20052;-47
2023/12/04 01:19:06;;;;;;;14.15;5.65;;;1.10;99.90;;;0.60;100.00;100885.59;5258124;28;20048;-46
2023/12/04 01:21:40;;;;;;;14.93;5.43;;;1.10;99.90;;;0.60;100.00;100885.59;5252242;28;20052;-47
2023/12/04 01:24:12;;;;;;;13.35;5.50;;;1.10;99.90;;;0.59;100.00;100879.56;5239444;28;20079;-46
2023/12/04 01:26:45;;;;;;;14.85;5.75;;;1.10;99.90;;;0.58;100.00;100872.63;5251102;28;20055;-47
2023/12/04 01:29:17;;;;;;;14.85;5.90;;;1.10;99.90;;;0.61;100.00;100877.09;5256308;28;20059;-48
2023/12/04 01:31:49;;;;;;;14.52;5.70;;;1.10;99.90;;;0.64;100.00;100862.81;5248903;28;20404;-47
2023/12/04 01:34:22;;;;;;;12.52;5.38;;;1.10;99.90;;;0.64;100.00;100859.38;5256840;28;20056;-48
2023/12/04 01:36:57;;;;;;;12.63;4.85;;;1.10;99.90;;;0.66;100.00;100866.41;5240605;28;20469;-48
2023/12/04 01:39:29;;;;;;;12.23;5.40;;;1.10;99.90;;;0.62;100.00;100863.50;5244318;28;20056;-47
2023/12/04 01:42:01;;;;;;;14.70;5.65;;;1.10;99.90;;;0.66;100.00;100852.69;5257447;28;20324;-47
2023/12/04 01:44:34;;;;;;;14.07;5.75;;;1.20;99.90;;;0.70;100.00;100862.38;5257962;28;20052;-47
2023/12/04 01:47:07;;;;;;;16.27;6.07;;;1.20;99.90;;;0.68;100.00;100864.84;5258098;28;20057;-47
2023/12/04 01:49:39;;;;;;;10.18;5.22;;;1.20;99.90;;;0.67;100.00;100862.19;5245364;28;20074;-46
2023/12/04 01:52:13;;;;;;;14.20;6.07;;;1.20;99.90;;;0.69;100.00;100856.38;5255852;28;20053;-48
2023/12/04 01:54:46;;;;;;;13.15;5.60;;;1.20;99.90;;;0.66;100.00;100848.47;5258439;28;20060;-46
2023/12/04 01:57:18;;;;;;;14.25;5.90;;;1.20;99.90;;;0.68;100.00;100853.69;5241838;28;20166;-47
2023/12/04 01:59:50;;;;;;;15.50;5.93;;;1.20;99.90;;;0.66;100.00;100850.13;5258363;28;20147;-46
2023/12/04 02:02:23;;;;;;;11.23;5.30;;;1.20;99.90;;;0.67;100.00;100845.09;5257622;28;20048;-49
2023/12/04 02:04:56;;;;;;;12.73;5.18;;;1.20;99.90;;;0.61;100.00;100836.94;5257891;28;20076;-47
2023/12/04 02:07:31;;;;;;;13.82;6.03;;;1.20;99.90;;;0.60;100.00;100832.59;5256856;28;20504;-48
2023/12/04 02:10:04;;;;;;;14.48;5.38;;;1.10;99.90;;;0.63;100.00;100834.50;5257444;28;20412;-47
2023/12/04 02:12:37;;;;;;;10.75;5.00;;;1.10;99.90;;;0.64;100.00;100837.16;5257749;28;20106;-47
2023/12/04 02:15:10;;;;;;;11.23;5.20;;;1.20;99.90;;;0.62;100.00;100828.47;5258048;28;20048;-47
2023/12/04 02:17:44;;;;;;;15.35;5.55;;;1.20;99.90;;;0.65;100.00;100838.06;5257811;28;20056;-48
2023/12/04 02:20:17;;;;;;;13.27;6.15;;;1.10;99.90;;;0.63;100.00;100835.38;5240931;28;20070;-46
2023/12/04 02:22:51;;;;;;;15.13;6.55;;;1.20;99.90;;;0.64;100.00;100824.34;5257446;28;20045;-47
2023/12/04 02:25:25;;;;;;;17.08;5.95;;;1.10;99.90;;;0.64;100.00;100829.47;5258128;28;20048;-47
2023/12/04 02:28:00;;;;;;;13.45;5.25;;;1.20;99.90;;;0.61;100.00;100829.25;5257573;28;20048;-47
2023/12/04 02:30:36;;;;;;;12.38;5.25;;;1.20;99.90;;;0.61;100.00;100826.69;5256780;28;20069;-47
2023/12/04 02:33:11;;;;;;;12.10;5.07;;;1.10;99.90;;;0.61;100.00;100821.56;5257130;28;20057;-48
2023/12/04 02:35:44;;;;;;;15.73;6.50;;;1.20;99.90;;;0.59;100.00;100815.44;5257501;28;20056;-48
2023/12/04 02:38:17;;;;;;;15.90;6.10;;;1.10;99.90;;;0.61;100.00;100811.28;5261815;28;20046;-46
2023/12/04 02:40:51;;;;;;;13.30;6.43;;;1.10;99.90;;;0.60;100.00;100806.94;5261765;28;20052;-46
2023/12/04 02:43:24;;;;;;;13.77;6.03;;;1.10;99.90;;;0.62;100.00;100797.69;5261140;28;20056;-48
2023/12/04 02:45:56;;;;;;;14.25;5.40;;;1.20;99.90;;;0.61;100.00;100780.50;5261433;28;20045;-46
2023/12/04 02:48:29;;;;;;;13.18;5.70;;;1.10;99.90;;;0.62;100.00;100787.41;5260240;28;20060;-48
2023/12/04 02:51:01;;;;;;;12.60;4.82;;;1.20;99.90;;;0.64;100.00;100785.84;5260634;28;20044;-47
2023/12/04 02:53:33;;;;;;;12.35;5.28;;;1.10;99.90;;;0.64;100.00;100790.97;5261416;28;20048;-48
2023/12/04 02:56:09;;;;;;;13.77;5.18;;;1.20;99.90;;;0.60;100.00;100778.72;5261157;28;20059;-45
2023/12/04 02:58:41;;;;;;;11.43;5.30;;;1.10;99.90;;;0.59;100.00;100782.09;5257543;28;20060;-47
2023/12/04 03:01:13;;;;;;;14.50;5.88;;;1.10;99.90;;;0.62;100.00;100778.84;5243729;28;20563;-47
2023/12/04 03:03:46;;;;;;;12.85;5.45;;;1.10;99.90;;;0.61;100.00;100783.06;5260952;28;20045;-48
2023/12/04 03:06:18;;;;;;;15.77;5.88;;;1.10;99.90;;;0.61;100.00;100774.50;5244158;28;20048;-46
2023/12/04 03:08:50;;;;;;;12.55;5.40;;;1.10;99.90;;;0.61;100.00;100775.38;5261064;28;20049;-47
2023/12/04 03:11:24;;;;;;;12.07;4.80;;;1.10;99.90;;;0.62;100.00;100766.91;5243743;28;20041;-46
2023/12/04 03:13:56;;;;;;;11.57;4.82;;;1.10;99.90;;;0.62;100.00;100766.91;5260732;28;20040;-47
2023/12/04 03:16:29;;;;;;;13.77;5.25;;;1.10;99.90;;;0.61;100.00;100766.78;5259436;28;20056;-47
2023/12/04 03:19:01;;;;;;;13.57;5.80;;;1.10;99.90;;;0.61;100.00;100760.00;5260536;28;20049;-48
2023/12/04 03:21:34;;;;;;;12.27;5.68;;;1.10;99.90;;;0.60;100.00;100763.34;5260492;28;20048;-47
2023/12/04 03:24:06;;;;;;;12.40;5.40;;;1.10;99.90;;;0.62;100.00;100754.06;5260855;28;20400;-48
2023/12/04 03:26:42;;;;;;;14.57;6.07;;;1.10;99.90;;;0.60;100.00;100750.50;5260971;28;20141;-45
2023/12/04 03:29:14;;;;;;;;;;;1.10;99.90;;;0.60;100.00;100753.06;5261064;28;20044;-47
2023/12/04 03:31:46;;;;;;;11.60;5.20;;;1.10;99.90;;;0.60;100.00;100749.63;5243206;28;19932;-48
2023/12/04 03:34:18;;;;;;;13.32;5.50;;;1.10;99.90;;;0.60;100.00;100752.19;5258200;28;20407;-47
2023/12/04 03:36:51;;;;;;;14.32;6.07;;;1.10;99.90;;;0.62;100.00;100753.19;5260973;28;20053;-48
2023/12/04 03:39:23;;;;;;;15.05;6.18;;;1.10;99.90;;;0.61;100.00;100746.28;5260249;28;20048;-48
2023/12/04 03:41:57;;;;;;;15.85;7.07;;;1.10;99.90;;;0.59;100.00;100743.59;5244398;28;20407;-47
2023/12/04 03:44:29;;;;;;;14.40;5.28;;;1.20;99.90;;;0.61;100.00;100749.72;5260595;28;20052;-47
2023/12/04 03:47:01;;;;;;;12.50;5.75;;;1.10;99.90;;;0.62;100.00;100743.81;5259817;28;20048;-48
2023/12/04 03:49:34;;;;;;;13.27;6.03;;;1.10;99.90;;;0.60;100.00;100734.22;5260148;28;20711;-48
2023/12/04 03:52:07;;;;;;;14.13;5.88;;;1.10;99.90;;;0.54;100.00;100732.09;5259789;28;20062;-47
2023/12/04 03:54:39;;;;;;;16.35;5.85;;;1.10;99.90;;;0.50;100.00;100725.84;5240585;28;20052;-47
2023/12/04 03:57:13;;;;;;;14.68;6.32;;;1.10;99.90;;;0.53;100.00;100722.63;5241777;28;20045;-47
2023/12/04 03:59:45;;;;;;;15.00;5.68;;;1.10;99.90;;;0.52;100.00;100723.38;5260187;28;20511;-47
2023/12/04 04:02:18;;;;;;;15.77;6.85;;;1.10;99.90;;;0.47;100.00;100727.31;5242077;28;20419;-47
2023/12/04 04:04:50;;;;;;;17.83;7.80;;;1.10;99.90;;;0.50;100.00;100725.84;5259709;28;20079;-48
2023/12/04 04:07:22;;;;;;;15.30;7.28;;;1.00;99.90;;;0.50;100.00;100725.84;5243497;28;20055;-47
2023/12/04 04:09:55;;;;;;;16.95;6.85;;;1.10;99.90;;;0.53;100.00;100720.94;5259989;28;20048;-47
2023/12/04 04:12:29;;;;;;;14.30;5.95;;;1.00;99.90;;;0.56;100.00;100716.81;5258154;28;20037;-47
2023/12/04 04:15:01;;;;;;;16.33;7.00;;;1.00;99.90;;;0.57;100.00;100721.16;5260050;28;20129;-47
2023/12/04 04:17:34;;;;;;;17.98;7.03;;;1.10;99.90;;;0.53;100.00;100712.38;5244387;28;20402;-47
2023/12/04 04:20:08;;;;;;;15.95;6.88;;;1.10;99.90;;;0.52;100.00;100715.69;5259359;28;20052;-48
2023/12/04 04:22:41;;;;;;;14.75;6.43;;;1.10;99.90;;;0.47;100.00;100711.91;5258604;28;20048;-47
2023/12/04 04:25:13;;;;;;;14.77;6.13;;;1.00;99.90;;;0.45;100.00;100704.09;5259659;28;20372;-46
2023/12/04 04:27:47;;;;;;;15.02;6.85;;;1.00;99.90;;;0.46;100.00;100699.88;5260247;28;20102;-47
2023/12/04 04:30:19;;;;;;;13.75;6.03;;;1.00;99.90;;;0.47;100.00;100693.97;5259510;28;20110;-46
2023/12/04 04:32:52;;;;;;;14.35;6.63;;;1.00;99.90;;;0.49;100.00;100682.13;5259842;28;20112;-47
2023/12/04 04:35:24;;;;;;;16.48;6.63;;;1.00;99.90;;;0.47;100.00;100683.72;5254147;28;20098;-48
2023/12/04 04:37:56;;;;;;;13.80;6.22;;;1.00;99.90;;;0.49;100.00;100683.03;5254710;28;20041;-47
2023/12/04 04:40:28;;;;;;;15.52;6.50;;;1.00;99.90;;;0.46;100.00;100687.06;5258033;28;20137;-48
2023/12/04 04:43:02;;;;;;;15.02;6.00;;;1.00;99.90;;;0.39;100.00;100677.09;5258488;28;20063;-47
2023/12/04 04:45:35;;;;;;;12.90;5.63;;;1.00;99.90;;;0.40;100.00;100676.34;5259787;28;20044;-47
2023/12/04 04:48:07;;;;;;;16.45;6.43;;;1.00;99.90;;;0.38;100.00;100677.88;5243303;28;20475;-48
2023/12/04 04:50:39;;;;;;;15.68;6.57;;;0.90;99.90;;;0.37;100.00;100678.66;5241525;28;20418;-47
2023/12/04 04:53:12;;;;;;;14.07;5.88;;;0.90;99.90;;;0.40;100.00;100682.38;5259150;28;20056;-47
2023/12/04 04:55:44;;;;;;;13.40;6.00;;;0.90;99.90;;;0.45;100.00;100680.13;5259491;28;20135;-47
2023/12/04 04:58:18;;;;;;;16.08;6.03;;;1.00;99.90;;;0.45;100.00;100685.25;5259019;28;20048;-47
2023/12/04 05:00:50;;;;;;;15.57;6.63;;;1.00;99.90;;;0.42;100.00;100678.22;5258752;28;20514;-47
2023/12/04 05:03:23;;;;;;;15.82;6.10;;;1.00;99.90;;;0.43;100.00;100691.94;5258352;28;20044;-47
2023/12/04 05:05:55;;;;;;;17.80;6.40;;;1.00;99.90;;;0.47;100.00;100682.03;5243437;28;20048;-49
2023/12/04 05:08:27;;;;;;;16.13;6.80;;;1.00;99.90;;;0.46;100.00;100669.09;5257541;28;20040;-50
2023/12/04 05:11:00;;;;;;;16.30;6.43;;;1.00;99.90;;;0.44;100.00;100670.63;5257943;28;20049;-47
2023/12/04 05:13:33;;;;;;;14.65;6.30;;;1.00;99.90;;;0.41;100.00;100670.44;5259077;28;20531;-48
2023/12/04 05:16:07;;;;;;;14.05;6.22;;;0.90;99.90;;;0.36;100.00;100670.09;5259164;28;20056;-48
2023/12/04 05:18:40;;;;;;;16.23;6.60;;;0.90;99.90;;;0.34;100.00;100675.91;5241017;28;20124;-48
2023/12/04 05:21:13;;;;;;;15.82;7.00;;;1.00;99.90;;;0.34;100.00;100674.22;5258027;28;20044;-48
2023/12/04 05:23:45;;;;;;;15.45;7.03;;;0.90;99.90;;;0.35;100.00;100668.31;5258989;28;20055;-47
2023/12/04 05:26:17;;;;;;;15.82;6.95;;;0.90;99.90;;;0.41;100.00;100667.88;5258495;28;20095;-48
2023/12/04 05:28:51;;;;;;;18.48;7.38;;;0.90;99.90;;;0.37;100.00;100666.75;5259061;28;20040;-48
2023/12/04 05:31:23;;;;;;;16.67;7.88;;;0.90;99.90;;;0.35;100.00;100668.31;5257652;28;20415;-46
2023/12/04 05:33:56;;;;;;;19.77;7.53;;;0.90;99.90;;;0.38;100.00;100667.63;5258576;28;20048;-48
2023/12/04 05:36:29;;;;;;;21.38;7.47;;;0.90;99.90;;;0.35;100.00;100662.28;5257370;28;20079;-48
2023/12/04 05:39:01;;;;;;;19.88;7.13;;;0.90;99.90;;;0.35;100.00;100655.47;5242350;28;20044;-47
2023/12/04 05:41:33;;;;;;;17.48;7.50;;;0.90;99.90;;;0.37;100.00;100653.91;5258006;28;20041;-48
2023/12/04 05:44:07;;;;;;;16.80;6.82;;;0.90;99.90;;;0.39;100.00;100648.88;5258513;28;20067;-47
2023/12/04 05:46:39;;;;;;;17.33;6.95;;;0.90;99.90;;;0.36;100.00;100641.00;5257886;28;20067;-46
2023/12/04 05:49:12;;;;;;;18.25;7.07;;;0.90;99.90;;;0.34;100.00;100645.13;5252748;28;20045;-47
2023/12/04 05:51:44;;;;;;;19.33;7.90;;;0.90;99.90;;;0.34;100.00;100629.75;5252700;28;20527;-47
2023/12/04 05:54:16;;;;;;;19.02;7.30;;;0.90;99.90;;;0.33;100.00;100627.97;5258106;28;20068;-46
2023/12/04 05:56:49;;;;;;;17.98;7.07;;;0.90;99.90;;;0.35;100.00;100629.84;5237706;28;20044;-48
2023/12/04 05:59:23;;;;;;;20.05;8.50;;;0.90;99.90;;;0.36;100.00;100623.03;5258030;28;20471;-48
2023/12/04 06:01:55;;;;;;;17.23;7.22;;;0.90;99.90;;;0.42;100.00;100628.63;5258155;28;20431;-46
2023/12/04 06:04:28;;;;;;;19.70;7.57;;;0.90;99.90;;;0.41;100.00;100627.72;5258177;28;20044;-48
2023/12/04 06:07:00;;;;;;;17.63;7.30;;;0.90;99.90;;;0.45;100.00;100626.25;5252583;28;20036;-46
2023/12/04 06:09:32;;;;;;;18.45;8.48;;;0.90;99.90;;;0.46;100.00;100622.94;5242914;28;20082;-48
2023/12/04 06:12:08;;;;;;;18.77;7.45;;;1.00;99.90;;;0.45;100.00;100618.56;5261344;28;20052;-47
2023/12/04 06:14:41;;;;;;;16.08;7.45;;;1.00;99.90;;;0.44;100.00;100622.81;5261486;28;20072;-48
2023/12/04 06:17:14;;;;;;;20.95;8.23;;;1.00;99.90;;;0.43;100.00;100604.75;5244912;28;20057;-48
2023/12/04 06:19:47;;;;;;;19.02;9.00;;;1.00;99.90;;;0.41;100.00;100616.56;5262337;28;20405;-48
2023/12/04 06:22:21;;;;;;;19.15;8.13;;;1.00;99.90;;;0.45;100.00;100603.19;5261280;28;20072;-47
2023/12/04 06:24:54;;;;;;;18.60;7.78;;;1.00;99.90;;;0.44;100.00;100601.41;5248189;28;20041;-47
2023/12/04 06:27:27;;;;;;;18.00;7.72;;;1.00;99.90;;;0.45;100.00;100609.19;5260786;28;20045;-48
2023/12/04 06:30:02;;;;;;;18.27;8.02;;;1.00;99.90;;;0.46;100.00;100598.19;5247578;28;20036;-48
2023/12/04 06:32:35;;;;;;;18.90;7.40;;;1.00;99.90;;;0.48;100.00;100598.28;5261392;28;20028;-47
2023/12/04 06:35:10;;;;;;;17.50;7.82;;;1.00;99.90;;;0.44;100.00;100597.16;5256560;28;20044;-47
2023/12/04 06:37:44;;;;;;;17.30;6.95;;;1.00;99.90;;;0.46;100.00;100595.63;5261222;28;20041;-47
2023/12/04 06:40:18;;;;;;;20.33;7.57;;;1.00;99.90;;;0.40;100.00;100586.59;5246578;28;20053;-47
2023/12/04 06:42:51;;;;;;;17.67;7.22;;;1.00;99.90;;;0.41;100.00;100570.41;5239259;28;20047;-47
2023/12/04 06:45:26;;;;;;;18.15;7.57;;;1.00;99.90;;;0.46;100.00;100580.22;5240497;28;20037;-47
2023/12/04 06:48:00;;;;;;;17.60;7.20;;;0.90;99.90;;;0.42;100.00;100569.63;5262105;28;20055;-47
2023/12/04 06:50:32;;;;;;;16.23;7.38;;;1.00;99.90;;;0.39;100.00;100546.31;5245196;28;20414;-47
2023/12/04 06:53:05;;;;;;;18.58;8.32;;;0.90;99.90;;;0.37;100.00;100542.75;5260922;28;20501;-47
2023/12/04 06:55:37;;;;;;;16.15;7.72;;;0.90;99.90;;;0.30;100.00;100543.13;5261971;28;20062;-45
2023/12/04 06:58:09;;;;;;;17.88;7.47;;;0.90;99.90;;;0.23;100.00;100523.84;5246331;28;20056;-47
2023/12/04 07:00:43;;;;;;;15.60;6.60;;;0.80;99.90;;;0.16;100.00;100502.00;5256009;28;20048;-46
2023/12/04 07:03:16;;;;;;;17.77;6.55;;;0.80;99.90;;;0.13;100.00;100517.19;5260709;28;20044;-48
2023/12/04 07:05:49;;;;;;;15.85;7.35;;;0.80;99.90;;;0.16;100.00;100519.06;5261596;28;20072;-47
2023/12/04 07:08:21;;;;;;;20.10;7.78;;;0.70;99.90;;;0.17;100.00;100533.66;5261257;28;20094;-47
2023/12/04 07:10:53;;;;;;;19.02;7.60;;;0.80;99.90;;;0.18;100.00;100528.63;5261480;28;20058;-47
2023/12/04 07:13:26;;;;;;;17.23;6.50;;;0.80;99.90;;;0.12;100.00;100524.72;5260229;28;20051;-47
2023/12/04 07:16:01;;;;;;;12.95;6.32;;;0.70;99.90;;;0.15;100.00;100525.84;5261024;28;20044;-47
2023/12/04 07:18:33;;;;;;;18.85;7.38;;;0.80;99.90;;;0.13;100.00;100532.56;5260632;28;20586;-46
2023/12/04 07:21:06;;;;;;;17.08;6.93;;;0.70;99.90;;;0.16;100.00;100527.63;5260325;28;20048;-48
2023/12/04 07:23:39;;;;;;;15.73;7.22;;;0.70;99.90;;;0.19;100.00;100515.03;5244286;28;20578;-47
2023/12/04 07:26:11;;;;;;;14.38;6.45;;;0.70;99.90;;;0.22;100.00;100516.94;5260505;28;20044;-46
2023/12/04 07:28:43;;;;;;;16.35;6.80;;;0.80;99.90;;;0.16;100.00;100507.13;5261127;28;20317;-47
2023/12/04 07:31:17;;;;;;;15.52;7.65;;;0.80;99.90;;;0.15;100.00;100505.34;5259845;28;20332;-47
2023/12/04 07:33:50;;;;;;;17.52;7.00;;;0.80;99.90;;;0.18;100.00;100503.00;5244526;28;20037;-48
2023/12/04 07:36:23;;;;;;;18.38;6.95;;;0.80;99.90;;;0.16;100.00;100507.13;5242837;28;20134;-47
2023/12/04 07:38:56;;;;;;;18.60;7.00;;;0.80;99.90;;;0.13;100.00;100509.50;5260433;28;20075;-48
2023/12/04 07:41:28;;;;;;;20.20;8.52;;;0.80;99.90;;;0.15;100.00;100515.59;5259559;28;20047;-48
2023/12/04 07:44:01;;;;;;;18.45;7.80;;;0.80;99.90;;;0.20;100.00;100516.84;5260381;28;20053;-47
2023/12/04 07:46:35;;;;;;;19.38;8.02;;;0.80;99.90;;;0.35;100.00;100519.59;5260396;28;20083;-48
2023/12/04 07:49:07;;;;;;;16.95;6.88;;;0.90;99.90;;;0.35;100.00;100519.59;5261053;28;20048;-46
2023/12/04 07:51:39;;;;;;;16.05;7.13;;;0.90;99.90;;;0.38;100.00;100529.16;5242463;28;20056;-47
2023/12/04 07:54:12;;;;;;;15.00;6.20;;;0.90;99.90;;;0.37;100.00;100527.38;5260406;28;20045;-47
2023/12/04 07:56:44;;;;;;;17.88;7.32;;;0.90;99.90;;;0.41;100.00;100535.41;5260524;28;20044;-48
2023/12/04 07:59:16;;;;;;;14.65;6.00;;;1.00;99.90;;;0.44;100.00;100524.47;5254319;28;20053;-48
2023/12/04 08:01:50;;;;;;;17.20;7.18;;;1.00;99.90;;;0.43;100.00;100522.69;5254996;28;20044;-47
2023/12/04 08:04:23;;;;;;;15.45;6.07;;;1.00;99.90;;;0.73;100.00;100517.13;5254071;28;20044;-47
2023/12/04 08:06:56;;;;;;;16.50;6.82;;;1.20;99.90;;;0.65;100.00;100518.28;5260128;28;20053;-47
2023/12/04 08:09:28;;;;;;;15.40;6.45;;;1.20;99.90;;;0.63;100.00;100519.84;5259953;28;20052;-49
2023/12/04 08:12:01;;;;;;;13.40;6.18;;;1.20;99.90;;;0.60;100.00;100517.06;5259728;28;20055;-47
2023/12/04 08:14:33;;;;;;;15.13;6.75;;;1.10;99.90;;;0.52;100.00;100520.75;5213604;28;20041;-48
2023/12/04 08:17:07;;;;;;;14.75;6.30;;;1.10;99.90;;;0.50;100.00;100520.66;5238651;28;20067;-47
2023/12/04 08:19:40;;;;;;;15.43;6.10;;;1.10;99.90;;;0.49;100.00;100506.06;5259956;28;20098;-46
2023/12/04 08:22:12;;;;;;;17.33;7.15;;;1.10;99.90;;;0.45;100.00;100510.84;5258634;28;20046;-47
2023/12/04 08:24:44;;;;;;;13.88;6.55;;;1.00;99.90;;;0.50;100.00;100505.25;5266305;22;20072;-88
2023/12/04 08:27:16;;;;;;;16.20;6.50;;;1.00;99.90;;;0.50;100.00;100501.81;5228100;28;20149;-86
2023/12/04 08:29:48;;;;;;;16.17;6.50;;;1.10;99.90;;;0.59;100.00;100498.97;5232791;28;20497;-84
2023/12/04 08:32:22;;;;;;;15.02;6.30;;;1.10;99.90;;;0.57;100.00;100492.88;5258117;28;20045;-86
2023/12/04 08:34:54;;;;;;;15.52;6.35;;;1.10;99.90;;;0.57;100.00;100492.88;5236265;28;20045;-86
2023/12/04 08:37:26;;;;;;;15.38;6.03;;;1.10;99.90;;;0.56;100.00;100489.41;5234125;28;20045;-86
2023/12/04 08:39:58;;;;;;;14.18;6.63;;;1.10;99.90;;;0.59;100.00;100488.72;5243211;28;20041;-87
2023/12/04 08:42:30;;;;;;;16.17;6.93;;;1.10;99.90;;;0.59;100.00;100483.59;5263443;28;20057;-87
2023/12/04 08:45:05;;;;;;;16.05;6.43;;;1.10;99.90;;;0.56;100.00;100475.69;5240426;28;20056;-88
2023/12/04 08:47:39;;;;;;;16.90;6.47;;;1.10;99.90;;;0.51;100.00;100481.38;5233433;28;20041;-86
2023/12/04 08:50:11;;;;;;;13.43;6.70;;;1.10;99.90;;;0.49;100.00;100471.81;5233804;28;20421;-85
2023/12/04 08:52:44;;;;;;;16.83;6.80;;;1.00;99.90;;;0.50;100.00;100473.59;5231993;28;20048;-87
2023/12/04 08:55:16;;;;;;;13.48;5.70;;;1.10;99.90;;;0.53;100.00;100482.41;5249886;28;20071;-86
2023/12/04 08:57:48;;;;;;;15.40;6.82;;;1.10;99.90;;;0.52;100.00;100479.72;5244155;28;20707;-85
2023/12/04 09:00:21;;;;;;;15.30;5.95;;;1.30;99.90;;;0.46;100.00;100482.78;5230755;28;20056;-85
2023/12/04 09:02:54;;;;;;;13.73;5.78;;;1.10;99.90;;;0.49;100.00;100479.53;5262211;28;20033;-84
2023/12/04 09:05:26;;;;;;;14.00;6.32;;;1.10;99.90;;;0.54;100.00;100485.88;5230316;28;20041;-85
2023/12/04 09:07:58;;;;;;;16.10;5.70;;;1.10;99.90;;;0.52;100.00;100469.47;5250712;28;20045;-86
2023/12/04 09:10:30;;;;;;;14.43;6.18;;;1.10;99.90;;;0.54;100.00;100462.78;5233877;28;20052;-85
2023/12/04 09:13:02;;;;;;;15.25;6.32;;;1.10;99.90;;;0.68;100.00;100458.59;5235035;28;20113;-85
2023/12/04 09:15:35;;;;;;;14.73;5.70;;;1.20;99.90;;;0.64;100.00;100466.84;5252520;28;20045;-85
2023/12/04 09:18:08;;;;;;;13.40;6.18;;;1.20;99.90;;;0.72;100.00;100460.59;5252587;28;20112;-85
2023/12/04 09:20:40;;;;;;;13.68;6.15;;;1.20;99.90;;;0.78;100.00;100456.78;5235349;28;20127;-87
2023/12/04 09:23:12;;;;;;;13.75;6.15;;;1.20;99.90;;;0.73;100.00;100460.69;5242028;28;20423;-86
2023/12/04 09:25:45;;;;;;;17.63;6.38;;;1.30;99.90;;;0.61;100.00;100435.88;5233864;28;20051;-85
2023/12/04 09:28:17;;;;;;;15.05;5.85;;;1.20;99.90;;;0.62;100.00;100438.53;5234642;28;20049;-86
2023/12/04 09:30:49;;;;;;;13.45;6.10;;;1.20;99.90;;;0.67;100.00;100426.91;5235507;28;20045;-86
2023/12/04 09:33:22;;;;;;;16.52;6.25;;;1.20;99.90;;;0.69;100.00;100427.91;5234367;28;20041;-86
2023/12/04 09:35:55;;;;;;;13.38;5.25;;;1.20;99.90;;;0.70;100.00;100421.09;5249704;28;20045;-86
2023/12/04 09:38:27;;;;;;;12.90;5.47;;;1.20;99.90;;;0.76;100.00;100419.84;5261277;28;20053;-84
2023/12/04 09:41:01;;;;;;;11.65;5.35;;;1.30;99.90;;;0.81;100.00;100421.03;5234249;28;20045;-85
2023/12/04 09:43:34;;;;;;;14.65;6.30;;;1.30;99.90;;;0.82;100.00;100422.81;5236661;28;20055;-86
2023/12/04 09:46:07;;;;;;;15.55;6.32;;;1.40;99.90;;;0.82;100.00;100410.00;5232730;28;20045;-86
2023/12/04 09:48:43;;;;;;;15.70;6.55;;;1.40;99.90;;;0.89;100.00;100408.72;5234153;28;20060;-86
2023/12/04 09:51:17;;;;;;;12.75;5.78;;;1.40;99.90;;;0.91;100.00;100399.44;5235254;28;20052;-85
2023/12/04 09:53:50;;;;;;;16.63;6.25;;;1.40;99.90;;;0.89;100.00;100392.44;5251669;28;20045;-85
2023/12/04 09:56:24;;;;;;;14.20;5.90;;;1.40;99.90;;;0.89;100.00;100388.19;5239507;28;20049;-86
2023/12/04 09:59:00;;;;;;;16.77;6.35;;;1.50;99.90;;;0.89;100.00;100392.44;5262029;28;20045;-87
2023/12/04 10:01:34;;;;;;;12.98;5.38;;;1.40;99.90;;;0.91;100.00;100390.84;5232433;28;20110;-85
2023/12/04 10:04:09;;;;;;;12.38;5.40;;;1.50;99.90;;;0.98;100.00;100387.94;5235556;28;20052;-85
2023/12/04 10:06:41;;;;;;;12.18;5.30;;;1.60;99.90;;;1.09;100.00;100379.22;5252589;28;20068;-86
2023/12/04 10:09:13;;;;;;;13.57;5.88;;;1.60;99.90;;;1.12;100.00;100381.13;5234349;28;20128;-85
2023/12/04 10:11:46;;;;;;;12.25;5.70;;;1.60;99.90;;;1.12;100.00;100368.31;5236388;28;20041;-85
2023/12/04 10:14:20;;;;;;;12.60;5.78;;;1.60;99.90;;;1.14;100.00;100371.84;5235110;28;20047;-85
2023/12/04 10:16:53;;;;;;;11.52;5.55;;;1.70;99.90;;;1.14;100.00;100377.88;5232428;28;20045;-85
2023/12/04 10:19:29;;;;;;;13.30;5.53;;;1.70;99.90;;;1.26;100.00;100358.13;5235199;28;20041;-87
2023/12/04 10:22:02;;;;;;;13.32;5.72;;;1.70;99.90;;;1.20;100.00;100360.28;5233116;28;20041;-85
2023/12/04 10:24:36;;;;;;;12.25;5.38;;;1.70;99.90;;;1.22;100.00;100358.72;5236182;28;20049;-86
2023/12/04 10:27:11;;;;;;;11.77;5.32;;;1.70;99.90;;;1.20;100.00;100352.59;5234609;28;20132;-86
2023/12/04 10:29:45;;;;;;;18.75;8.10;;;1.70;99.90;;;1.27;100.00;100346.19;5249906;28;20025;-85
2023/12/04 10:32:21;;;;;;;12.95;6.00;;;1.70;99.90;;;1.25;100.00;100346.09;5235295;28;20515;-85
2023/12/04 10:34:56;;;;;;;11.43;5.45;;;1.80;99.90;;;1.22;100.00;100340.72;5221635;28;20048;-87